createdAt,value
2019-03-19T00:02:13.805Z,94.76
2019-03-19T00:04:46.897Z,94.70
2019-03-19T00:07:21.420Z,94.75
2019-03-19T00:09:52.097Z,94.89
2019-03-19T00:12:22.280Z,94.82
2019-03-19T00:14:52.450Z,94.47
2019-03-19T00:17:22.815Z,94.19
2019-03-19T00:19:53.553Z,94.08
2019-03-19T00:22:25.739Z,94.09
2019-03-19T00:24:56.351Z,94.37
2019-03-19T00:27:32.469Z,95.65
2019-03-19T00:30:04.106Z,95.98
2019-03-19T00:32:34.513Z,95.83
2019-03-19T00:35:05.517Z,95.64
2019-03-19T00:37:35.859Z,95.19
2019-03-19T00:40:06.834Z,94.89
2019-03-19T00:42:37.039Z,94.77
2019-03-19T00:45:08.193Z,94.58
2019-03-19T00:47:38.587Z,94.55
2019-03-19T00:50:13.086Z,94.54
2019-03-19T00:52:49.472Z,94.46
2019-03-19T00:55:19.660Z,94.19
2019-03-19T00:57:49.917Z,94.14
2019-03-19T01:00:22.194Z,94.19
2019-03-19T01:02:55.308Z,94.31
2019-03-19T01:05:25.553Z,94.37
2019-03-19T01:07:55.912Z,94.45
2019-03-19T01:10:27.706Z,94.52
2019-03-19T01:12:59.470Z,94.63
2019-03-19T01:15:32.182Z,94.89
2019-03-19T01:18:02.430Z,94.82
2019-03-19T01:20:32.683Z,94.55
2019-03-19T01:23:02.943Z,94.62
2019-03-19T01:25:35.168Z,94.88
2019-03-19T01:28:07.261Z,95.05
2019-03-19T01:30:37.594Z,95.32
2019-03-19T01:33:08.114Z,95.49
2019-03-19T01:35:38.557Z,95.62
2019-03-19T01:38:10.415Z,95.77
2019-03-19T01:40:40.810Z,95.44
2019-03-19T01:43:11.200Z,95.44
2019-03-19T01:45:43.097Z,95.85
2019-03-19T01:48:16.726Z,95.98
2019-03-19T01:50:46.905Z,96.04
2019-03-19T01:53:20.553Z,96.13
2019-03-19T01:55:52.684Z,96.05
2019-03-19T01:58:23.047Z,95.97
2019-03-19T02:00:56.016Z,96.02
2019-03-19T02:03:26.439Z,96.12
2019-03-19T02:05:56.634Z,96.04
2019-03-19T02:08:28.105Z,96.19
2019-03-19T02:10:58.404Z,96.47
2019-03-19T02:13:28.610Z,96.39
2019-03-19T02:16:00.367Z,96.29
2019-03-19T02:18:31.590Z,96.23
2019-03-19T02:21:01.859Z,96.28
2019-03-19T02:23:32.078Z,96.24
2019-03-19T02:26:15.608Z,96.21
2019-03-19T02:28:39.101Z,96.34
2019-03-19T02:31:09.301Z,96.39
2019-03-19T02:33:39.806Z,96.44
2019-03-19T02:36:12.596Z,96.40
2019-03-19T02:38:42.897Z,96.21
2019-03-19T02:41:16.086Z,95.97
2019-03-19T02:43:47.863Z,95.91
2019-03-19T02:46:18.521Z,96.08
2019-03-19T02:48:48.720Z,96.23
2019-03-19T02:51:18.860Z,96.56
2019-03-19T02:53:49.038Z,96.46
2019-03-19T02:56:32.545Z,96.37
2019-03-19T02:58:53.095Z,96.16
2019-03-19T03:01:24.496Z,96.00
2019-03-19T03:03:54.873Z,95.85
2019-03-19T03:06:25.128Z,95.58
2019-03-19T03:08:55.248Z,95.31
2019-03-19T03:11:25.591Z,95.07
2019-03-19T03:13:56.255Z,94.96
2019-03-19T03:16:26.508Z,94.89
2019-03-19T03:18:56.942Z,94.87
2019-03-19T03:21:27.064Z,94.89
2019-03-19T03:23:57.225Z,94.93
2019-03-19T03:26:27.409Z,94.97
2019-03-19T03:28:59.334Z,94.88
2019-03-19T03:31:29.833Z,94.85
2019-03-19T03:34:00.218Z,94.84
2019-03-19T03:36:30.924Z,95.08
2019-03-19T03:39:01.145Z,94.99
2019-03-19T03:41:33.066Z,94.78
2019-03-19T03:44:03.764Z,94.73
2019-03-19T03:46:33.911Z,94.85
2019-03-19T03:49:04.117Z,94.98
2019-03-19T03:51:34.313Z,95.03
2019-03-19T03:54:04.534Z,95.04
2019-03-19T03:56:36.740Z,95.05
2019-03-19T03:59:07.110Z,95.21
2019-03-19T04:01:37.263Z,95.27
2019-03-19T04:04:07.652Z,95.35
2019-03-19T04:06:38.200Z,95.50
2019-03-19T04:09:10.598Z,95.58
2019-03-19T04:11:41.287Z,95.60
2019-03-19T04:14:11.779Z,96.23
2019-03-19T04:16:41.934Z,96.33
2019-03-19T04:19:12.826Z,96.12
2019-03-19T04:21:44.640Z,96.00
2019-03-19T04:24:16.646Z,95.87
2019-03-19T04:26:52.599Z,95.78
2019-03-19T04:29:22.830Z,95.73
2019-03-19T04:31:53.595Z,95.89
2019-03-19T04:34:24.271Z,96.26
2019-03-19T04:36:57.178Z,96.74
2019-03-19T04:39:27.468Z,97.02
2019-03-19T04:41:58.001Z,97.39
2019-03-19T04:44:28.774Z,97.57
2019-03-19T04:46:59.046Z,97.69
2019-03-19T04:49:29.393Z,97.74
2019-03-19T04:51:59.588Z,97.72
2019-03-19T04:54:29.840Z,97.72
2019-03-19T04:57:02.220Z,97.80
2019-03-19T04:59:34.037Z,97.87
2019-03-19T05:02:04.414Z,97.90
2019-03-19T05:04:35.163Z,97.87
2019-03-19T05:07:08.551Z,97.70
2019-03-19T05:09:38.756Z,97.62
2019-03-19T05:12:08.941Z,97.53
2019-03-19T05:14:39.132Z,97.35
2019-03-19T05:17:09.305Z,97.20
2019-03-19T05:19:39.598Z,96.95
2019-03-19T05:22:09.943Z,96.75
2019-03-19T05:24:40.568Z,96.43
2019-03-19T05:27:13.905Z,96.44
2019-03-19T05:29:44.130Z,96.57
2019-03-19T05:32:16.013Z,97.11
2019-03-19T05:34:46.374Z,96.99
2019-03-19T05:37:16.571Z,97.09
2019-03-19T05:39:47.177Z,96.83
2019-03-19T05:42:17.348Z,96.60
2019-03-19T05:44:47.556Z,96.61
2019-03-19T05:47:18.213Z,96.56
2019-03-19T05:49:50.163Z,96.47
2019-03-19T05:52:20.608Z,96.48
2019-03-19T05:54:50.856Z,96.48
2019-03-19T05:57:21.090Z,96.43
2019-03-19T05:59:51.388Z,96.23
2019-03-19T06:02:21.650Z,96.06
2019-03-19T06:04:54.350Z,95.86
2019-03-19T06:07:24.618Z,95.71
2019-03-19T06:09:59.038Z,95.65
2019-03-19T06:12:29.466Z,95.60
2019-03-19T06:15:03.058Z,95.53
2019-03-19T06:17:33.375Z,95.50
2019-03-19T06:20:04.260Z,95.44
2019-03-19T06:22:36.635Z,95.43
2019-03-19T06:25:07.802Z,95.44
2019-03-19T06:27:40.070Z,95.42
2019-03-19T06:30:13.488Z,95.32
2019-03-19T06:32:44.183Z,95.22
2019-03-19T06:35:15.422Z,95.17
2019-03-19T06:37:46.186Z,95.15
2019-03-19T06:40:22.695Z,95.07
2019-03-19T06:42:53.090Z,95.02
2019-03-19T06:45:24.644Z,94.85
2019-03-19T06:47:55.323Z,94.63
2019-03-19T06:50:28.022Z,94.27
2019-03-19T06:52:58.154Z,93.96
2019-03-19T06:55:28.728Z,93.57
2019-03-19T06:57:59.040Z,92.58
2019-03-19T07:00:32.370Z,91.01
2019-03-19T07:03:02.562Z,90.66
2019-03-19T07:05:32.730Z,90.03
2019-03-19T07:08:03.074Z,89.21
2019-03-19T07:10:33.323Z,88.46
2019-03-19T07:13:03.511Z,88.28
2019-03-19T07:15:34.177Z,88.07
2019-03-19T07:18:04.658Z,87.82
2019-03-19T07:20:34.937Z,87.14
2019-03-19T07:23:05.534Z,86.89
2019-03-19T07:25:36.058Z,85.59
2019-03-19T07:28:07.204Z,83.98
2019-03-19T07:30:37.679Z,84.61
2019-03-19T07:33:10.618Z,83.44
2019-03-19T07:35:46.952Z,83.61
2019-03-19T07:38:17.159Z,83.71
2019-03-19T07:40:54.138Z,83.30
2019-03-19T07:43:24.870Z,81.66
2019-03-19T07:45:57.675Z,80.95
2019-03-19T07:48:28.411Z,77.66
2019-03-19T07:51:02.485Z,78.01
2019-03-19T07:53:32.816Z,78.68
2019-03-19T07:56:04.785Z,76.90
2019-03-19T07:58:44.728Z,76.65
2019-03-19T08:01:08.148Z,74.58
2019-03-19T08:03:38.632Z,72.71
2019-03-19T08:06:08.833Z,72.14
2019-03-19T08:08:41.644Z,71.39
2019-03-19T08:11:13.146Z,68.60
2019-03-19T08:13:43.910Z,66.06
2019-03-19T08:16:14.526Z,62.89
2019-03-19T08:18:46.204Z,58.64
2019-03-19T08:21:16.616Z,53.39
2019-03-19T08:23:46.902Z,50.44
2019-03-19T08:26:17.111Z,47.84
2019-03-19T08:28:55.055Z,46.91
2019-03-19T08:31:19.309Z,42.98
2019-03-19T08:33:51.117Z,42.53
2019-03-19T08:36:21.611Z,39.79
2019-03-19T08:38:52.411Z,39.05
2019-03-19T08:41:23.120Z,37.50
2019-03-19T08:43:54.189Z,35.65
2019-03-19T08:46:25.631Z,32.80
2019-03-19T08:48:55.906Z,32.45
2019-03-19T08:51:26.635Z,31.87
2019-03-19T08:53:59.083Z,31.08
2019-03-19T08:56:30.149Z,29.75
2019-03-19T08:59:05.885Z,30.65
2019-03-19T09:01:32.539Z,33.05
2019-03-19T09:04:02.871Z,35.01
2019-03-19T09:06:33.595Z,35.60
2019-03-19T09:09:08.604Z,32.02
2019-03-19T09:11:38.961Z,29.92
2019-03-19T09:14:09.811Z,27.73
2019-03-19T09:16:40.790Z,25.92
2019-03-19T09:19:11.313Z,30.91
2019-03-19T09:21:42.063Z,35.43
2019-03-19T09:24:15.869Z,37.42
2019-03-19T09:26:46.725Z,35.30
2019-03-19T09:29:17.499Z,33.93
2019-03-19T09:31:48.144Z,33.51
2019-03-19T09:34:18.644Z,32.66
2019-03-19T09:36:57.378Z,30.16
2019-03-19T09:39:22.601Z,33.05
2019-03-19T09:41:53.408Z,35.24
2019-03-19T09:44:24.271Z,35.83
2019-03-19T09:46:54.614Z,38.05
2019-03-19T09:49:26.504Z,42.10
2019-03-19T09:51:57.062Z,41.02
2019-03-19T09:54:27.652Z,44.72
2019-03-19T09:56:58.225Z,47.42
2019-03-19T09:59:28.905Z,46.13
2019-03-19T10:01:59.576Z,42.18
2019-03-19T10:04:30.571Z,40.55
2019-03-19T10:07:06.281Z,38.93
2019-03-19T10:09:38.263Z,36.01
2019-03-19T10:12:10.852Z,32.46
2019-03-19T10:14:43.481Z,29.39
2019-03-19T10:17:14.201Z,28.22
2019-03-19T10:19:44.480Z,25.72
2019-03-19T10:22:15.310Z,23.93
2019-03-19T10:24:45.922Z,22.22
2019-03-19T10:27:21.440Z,23.01
2019-03-19T10:29:54.072Z,25.17
2019-03-19T10:32:24.569Z,24.93
2019-03-19T10:34:54.904Z,25.62
2019-03-19T10:37:25.825Z,23.83
2019-03-19T10:39:55.999Z,22.49
2019-03-19T10:42:26.267Z,21.20
2019-03-19T10:44:56.646Z,20.82
2019-03-19T10:47:27.234Z,21.25
2019-03-19T10:49:57.728Z,19.26
2019-03-19T10:52:28.129Z,18.68
2019-03-19T10:54:58.388Z,19.30
2019-03-19T10:57:30.308Z,17.97
2019-03-19T11:00:13.248Z,18.01
2019-03-19T11:02:47.333Z,16.84
2019-03-19T11:05:18.072Z,15.66
2019-03-19T11:07:48.604Z,16.07
2019-03-19T11:10:19.320Z,15.91
2019-03-19T11:12:51.789Z,16.92
2019-03-19T11:15:22.210Z,18.88
2019-03-19T11:17:52.522Z,19.46
2019-03-19T11:20:22.863Z,17.74
2019-03-19T11:22:53.513Z,19.77
2019-03-19T11:25:23.962Z,21.27
2019-03-19T11:27:57.216Z,21.50
2019-03-19T11:30:31.151Z,25.78
2019-03-19T11:33:01.464Z,26.93
2019-03-19T11:35:32.823Z,26.76
2019-03-19T11:38:03.274Z,21.97
2019-03-19T11:40:36.014Z,19.22
2019-03-19T11:43:06.881Z,17.93
2019-03-19T11:45:37.260Z,16.09
2019-03-19T11:48:07.564Z,15.57
2019-03-19T11:50:41.230Z,15.02
2019-03-19T11:53:11.909Z,15.69
2019-03-19T11:55:42.165Z,18.10
2019-03-19T11:58:12.672Z,16.23
2019-03-19T12:00:45.588Z,16.15
2019-03-19T12:03:16.735Z,15.82
2019-03-19T12:05:47.326Z,14.92
2019-03-19T12:08:17.595Z,14.44
2019-03-19T12:10:48.058Z,14.05
2019-03-19T12:13:19.363Z,14.12
2019-03-19T12:15:51.577Z,14.18
2019-03-19T12:18:21.888Z,15.47
2019-03-19T12:20:52.241Z,15.50
2019-03-19T12:23:23.042Z,19.04
2019-03-19T12:25:53.177Z,23.23
2019-03-19T12:28:25.450Z,25.80
2019-03-19T12:30:55.289Z,27.50
2019-03-19T12:33:25.597Z,25.96
2019-03-19T12:35:57.811Z,24.50
2019-03-19T12:38:28.067Z,25.02
2019-03-19T12:40:58.386Z,26.00
2019-03-19T12:43:28.538Z,27.52
2019-03-19T12:45:59.106Z,26.13
2019-03-19T12:48:32.286Z,25.96
2019-03-19T12:51:02.701Z,24.42
2019-03-19T12:53:35.800Z,21.00
2019-03-19T12:56:06.093Z,19.51
2019-03-19T12:58:44.684Z,18.25
2019-03-19T13:01:15.293Z,18.10
2019-03-19T13:03:45.681Z,20.14
2019-03-19T13:06:15.901Z,17.70
2019-03-19T13:08:46.248Z,17.10
2019-03-19T13:11:16.912Z,15.43
2019-03-19T13:13:47.322Z,15.13
2019-03-19T13:16:17.568Z,14.08
2019-03-19T13:18:47.769Z,14.11
2019-03-19T13:21:18.035Z,13.63
2019-03-19T13:23:48.321Z,14.31
2019-03-19T13:26:21.760Z,14.31
2019-03-19T13:28:52.390Z,17.47
2019-03-19T13:31:26.232Z,17.97
2019-03-19T13:33:56.718Z,20.75
2019-03-19T13:36:27.035Z,20.22
2019-03-19T13:38:57.399Z,20.65
2019-03-19T13:41:28.145Z,22.02
2019-03-19T13:43:58.615Z,22.10
2019-03-19T13:46:29.552Z,22.25
2019-03-19T13:49:00.143Z,21.00
2019-03-19T13:51:31.085Z,20.34
2019-03-19T13:54:04.125Z,19.25
2019-03-19T13:56:34.280Z,18.94
2019-03-19T13:59:04.767Z,20.05
2019-03-19T14:01:35.438Z,23.41
2019-03-19T14:04:08.586Z,24.12
2019-03-19T14:06:39.030Z,20.95
2019-03-19T14:09:10.435Z,20.80
2019-03-19T14:11:40.660Z,18.90
2019-03-19T14:14:11.670Z,19.44
2019-03-19T14:16:41.945Z,19.44
2019-03-19T14:19:18.536Z,20.05
2019-03-19T14:21:50.333Z,18.52
2019-03-19T14:24:21.486Z,17.70
2019-03-19T14:26:52.262Z,19.04
2019-03-19T14:29:23.082Z,20.02
2019-03-19T14:31:53.507Z,20.75
2019-03-19T14:34:24.082Z,20.80
2019-03-19T14:36:54.268Z,19.60
2019-03-19T14:39:24.453Z,18.55
2019-03-19T14:41:54.954Z,18.40
2019-03-19T14:44:25.820Z,18.89
2019-03-19T14:46:57.744Z,20.16
2019-03-19T14:49:28.045Z,21.08
2019-03-19T14:51:58.320Z,23.53
2019-03-19T14:54:31.990Z,23.91
2019-03-19T14:57:03.623Z,23.76
2019-03-19T14:59:35.444Z,23.57
2019-03-19T15:02:07.920Z,25.00
2019-03-19T15:04:39.899Z,26.15
2019-03-19T15:07:10.160Z,25.82
2019-03-19T15:09:40.928Z,27.72
2019-03-19T15:12:11.456Z,29.76
2019-03-19T15:14:46.586Z,29.19
2019-03-19T15:17:17.917Z,28.91
2019-03-19T15:19:48.490Z,29.34
2019-03-19T15:22:19.367Z,29.32
2019-03-19T15:24:52.081Z,30.61
2019-03-19T15:27:22.619Z,30.32
2019-03-19T15:29:56.311Z,30.67
2019-03-19T15:32:29.420Z,31.42
2019-03-19T15:35:00.776Z,31.19
2019-03-19T15:37:31.565Z,31.24
2019-03-19T15:40:02.194Z,30.51
2019-03-19T15:42:32.443Z,31.04
2019-03-19T15:45:02.820Z,31.61
2019-03-19T15:47:34.627Z,31.69
2019-03-19T15:50:06.605Z,32.11
2019-03-19T15:52:39.906Z,32.09
2019-03-19T15:55:10.446Z,32.45
2019-03-19T15:57:41.211Z,32.63
2019-03-19T16:00:15.373Z,32.74
2019-03-19T16:02:45.634Z,33.38
2019-03-19T16:05:18.518Z,33.16
2019-03-19T16:07:49.651Z,33.75
2019-03-19T16:10:20.071Z,34.17
2019-03-19T16:12:52.280Z,35.13
2019-03-19T16:15:23.104Z,36.02
2019-03-19T16:17:53.558Z,35.35
2019-03-19T16:20:23.980Z,35.39
2019-03-19T16:22:55.217Z,35.23
2019-03-19T16:25:25.487Z,35.23
2019-03-19T16:27:59.130Z,35.33
2019-03-19T16:30:29.442Z,35.41
2019-03-19T16:32:59.986Z,35.82
2019-03-19T16:35:30.236Z,36.51
2019-03-19T16:38:01.004Z,37.70
2019-03-19T16:40:33.982Z,37.41
2019-03-19T16:43:04.368Z,37.52
2019-03-19T16:45:34.678Z,37.63
2019-03-19T16:48:05.107Z,38.27
2019-03-19T16:50:38.087Z,38.99
2019-03-19T16:53:08.740Z,39.48
2019-03-19T16:55:39.305Z,39.97
2019-03-19T16:58:09.640Z,40.69
2019-03-19T17:00:40.360Z,41.32
2019-03-19T17:03:12.565Z,41.98
2019-03-19T17:05:42.864Z,42.60
2019-03-19T17:08:13.141Z,43.47
2019-03-19T17:10:43.517Z,45.01
2019-03-19T17:13:14.221Z,45.13
2019-03-19T17:15:44.597Z,46.40
2019-03-19T17:18:16.899Z,46.09
2019-03-19T17:20:47.088Z,46.70
2019-03-19T17:23:17.571Z,48.00
2019-03-19T17:25:47.829Z,47.42
2019-03-19T17:28:22.660Z,47.15
2019-03-19T17:30:51.044Z,47.23
2019-03-19T17:33:21.574Z,48.35
2019-03-19T17:35:52.308Z,49.33
2019-03-19T17:38:22.628Z,49.73
2019-03-19T17:40:52.976Z,50.40
2019-03-19T17:43:23.458Z,51.74
2019-03-19T17:45:56.439Z,52.43
2019-03-19T17:48:27.047Z,52.35
2019-03-19T17:50:57.630Z,52.39
2019-03-19T17:53:28.103Z,52.41
2019-03-19T17:55:58.760Z,52.76
2019-03-19T17:58:29.009Z,53.42
2019-03-19T18:00:59.363Z,53.94
2019-03-19T18:03:30.276Z,54.33
2019-03-19T18:06:00.580Z,55.00
2019-03-19T18:08:30.922Z,55.80
2019-03-19T18:11:01.515Z,55.76
2019-03-19T18:13:31.801Z,55.95
2019-03-19T18:16:05.114Z,56.79
2019-03-19T18:18:35.659Z,57.30
2019-03-19T18:21:06.582Z,57.89
2019-03-19T18:23:36.915Z,58.12
2019-03-19T18:26:09.382Z,58.62
2019-03-19T18:28:39.885Z,58.55
2019-03-19T18:31:10.547Z,59.47
2019-03-19T18:33:41.216Z,60.05
2019-03-19T18:36:11.511Z,60.40
2019-03-19T18:38:42.002Z,62.54
2019-03-19T18:41:15.051Z,62.34
2019-03-19T18:43:45.975Z,62.41
2019-03-19T18:46:17.137Z,63.61
2019-03-19T18:48:48.640Z,63.61
2019-03-19T18:51:19.420Z,64.20
2019-03-19T18:53:49.822Z,64.79
2019-03-19T18:56:20.366Z,64.99
2019-03-19T18:58:51.715Z,64.56
2019-03-19T19:01:22.320Z,65.04
2019-03-19T19:03:52.759Z,64.95
2019-03-19T19:06:23.088Z,65.76
2019-03-19T19:08:53.861Z,66.64
2019-03-19T19:11:24.779Z,66.69
2019-03-19T19:13:55.212Z,67.43
2019-03-19T19:16:25.589Z,68.28
2019-03-19T19:18:58.662Z,68.54
2019-03-19T19:21:29.017Z,69.56
2019-03-19T19:23:59.464Z,69.67
2019-03-19T19:26:30.014Z,69.37
2019-03-19T19:29:00.483Z,68.79
2019-03-19T19:31:31.187Z,68.65
2019-03-19T19:34:01.878Z,69.21
2019-03-19T19:36:32.342Z,69.91
2019-03-19T19:39:03.195Z,70.62
2019-03-19T19:41:35.505Z,71.37
2019-03-19T19:44:06.468Z,71.56
2019-03-19T19:46:39.817Z,71.92
2019-03-19T19:49:10.160Z,71.92
2019-03-19T19:51:40.937Z,72.18
2019-03-19T19:54:11.442Z,72.72
2019-03-19T19:56:42.318Z,72.46
2019-03-19T19:59:12.755Z,72.24
2019-03-19T20:01:47.209Z,72.45
2019-03-19T20:04:17.902Z,72.92
2019-03-19T20:06:48.512Z,72.57
2019-03-19T20:09:19.071Z,72.72
2019-03-19T20:11:49.401Z,73.40
2019-03-19T20:14:19.705Z,75.33
2019-03-19T20:16:51.382Z,74.72
2019-03-19T20:19:23.689Z,74.53
2019-03-19T20:21:55.661Z,74.18
2019-03-19T20:24:26.236Z,74.76
2019-03-19T20:26:56.988Z,74.58
2019-03-19T20:29:27.458Z,74.43
2019-03-19T20:31:58.160Z,74.79
2019-03-19T20:34:30.609Z,75.15
2019-03-19T20:41:01.260Z,76.58
2019-03-19T20:43:32.187Z,76.39
2019-03-19T20:46:04.081Z,76.87
2019-03-19T20:48:35.997Z,77.46
2019-03-19T20:51:07.315Z,77.70
2019-03-19T20:53:37.851Z,77.89
2019-03-19T20:56:09.949Z,78.38
2019-03-19T20:58:43.766Z,78.77
2019-03-19T21:01:12.644Z,78.61
2019-03-19T21:03:43.605Z,78.08
2019-03-19T21:06:15.675Z,78.02
2019-03-19T21:08:46.100Z,78.02
2019-03-19T21:11:16.885Z,78.59
2019-03-19T21:13:49.150Z,80.09
2019-03-19T21:16:20.079Z,81.38
2019-03-19T21:18:50.589Z,81.23
2019-03-19T21:21:21.051Z,80.65
2019-03-19T21:23:51.695Z,80.29
2019-03-19T21:26:22.199Z,79.90
2019-03-19T21:28:52.467Z,79.96
2019-03-19T21:31:22.906Z,80.08
2019-03-19T21:33:53.875Z,80.38
2019-03-19T21:36:24.587Z,80.40
2019-03-19T21:38:56.258Z,80.58
2019-03-19T21:41:27.070Z,80.97
2019-03-19T21:44:00.014Z,80.92
2019-03-19T21:46:30.493Z,80.71
2019-03-19T21:49:01.772Z,80.58
2019-03-19T21:51:33.122Z,80.66
2019-03-19T21:54:03.736Z,80.97
2019-03-19T21:56:34.215Z,80.95
2019-03-19T21:59:05.396Z,81.34
2019-03-19T22:01:35.946Z,81.51
2019-03-19T22:04:06.736Z,81.64
2019-03-19T22:06:37.179Z,81.82
2019-03-19T22:09:07.972Z,82.06
2019-03-19T22:11:38.505Z,81.95
2019-03-19T22:14:09.201Z,82.02
2019-03-19T22:16:39.942Z,82.24
2019-03-19T22:19:18.711Z,82.89
2019-03-19T22:21:52.886Z,83.46
2019-03-19T22:24:25.286Z,83.65
2019-03-19T22:26:55.767Z,83.27
2019-03-19T22:29:26.328Z,83.07
2019-03-19T22:31:56.486Z,83.00
2019-03-19T22:34:26.628Z,83.01
2019-03-19T22:36:57.321Z,82.98
2019-03-19T22:39:27.881Z,83.07
2019-03-19T22:41:58.406Z,83.21
2019-03-19T22:44:33.006Z,83.03
2019-03-19T22:47:03.526Z,82.88
2019-03-19T22:49:37.811Z,82.99
2019-03-19T22:52:11.049Z,83.02
2019-03-19T22:54:41.239Z,83.03
2019-03-19T22:57:12.018Z,83.10
2019-03-19T22:59:44.942Z,83.33
2019-03-19T23:02:19.303Z,83.69
2019-03-19T23:04:50.640Z,84.73
2019-03-19T23:07:21.042Z,86.95
2019-03-19T23:09:51.781Z,86.49
2019-03-19T23:12:24.686Z,86.37
2019-03-19T23:14:55.633Z,85.60
2019-03-19T23:17:26.034Z,85.43
2019-03-19T23:19:57.498Z,85.26
2019-03-19T23:22:28.068Z,85.43
2019-03-19T23:24:59.717Z,85.40
2019-03-19T23:27:30.265Z,85.28
2019-03-19T23:30:00.475Z,84.95
2019-03-19T23:32:31.192Z,84.95
2019-03-19T23:35:01.627Z,85.09
2019-03-19T23:37:33.885Z,85.26
2019-03-19T23:40:04.767Z,85.41
2019-03-19T23:42:37.252Z,85.51
2019-03-19T23:45:09.282Z,85.76
2019-03-19T23:47:39.519Z,85.81
2019-03-19T23:50:12.577Z,85.93
2019-03-19T23:52:45.080Z,85.92
2019-03-19T23:55:16.694Z,85.78
2019-03-19T23:57:49.501Z,85.72
